sensor_id;sensor_type;location;lat;lon;timestamp;P1;durP1;ratioP1;P2;durP2;ratioP2
10174;SDS011;18221;38.704;0.152;2023-10-08T00:13:43;8.30;;;7.50;;
10174;SDS011;18221;38.704;0.152;2023-10-08T00:16:13;9.40;;;7.87;;
10174;SDS011;18221;38.704;0.152;2023-10-08T00:18:42;8.50;;;7.37;;
10174;SDS011;18221;38.704;0.152;2023-10-08T00:21:16;8.00;;;7.20;;
10174;SDS011;18221;38.704;0.152;2023-10-08T00:23:51;7.77;;;7.07;;
10174;SDS011;18221;38.704;0.152;2023-10-08T00:26:23;9.87;;;8.57;;
10174;SDS011;18221;38.704;0.152;2023-10-08T00:28:56;8.47;;;7.57;;
10174;SDS011;18221;38.704;0.152;2023-10-08T00:31:32;9.43;;;7.33;;
10174;SDS011;18221;38.704;0.152;2023-10-08T00:34:05;9.90;;;7.67;;
10174;SDS011;18221;38.704;0.152;2023-10-08T00:36:36;11.17;;;7.57;;
10174;SDS011;18221;38.704;0.152;2023-10-08T00:39:05;9.83;;;7.67;;
10174;SDS011;18221;38.704;0.152;2023-10-08T00:41:39;9.27;;;8.00;;
10174;SDS011;18221;38.704;0.152;2023-10-08T00:44:13;9.20;;;8.07;;
10174;SDS011;18221;38.704;0.152;2023-10-08T00:46:48;9.17;;;7.50;;
10174;SDS011;18221;38.704;0.152;2023-10-08T00:49:17;10.07;;;7.90;;
10174;SDS011;18221;38.704;0.152;2023-10-08T00:52:04;8.43;;;7.10;;
10174;SDS011;18221;38.704;0.152;2023-10-08T00:54:50;7.83;;;7.03;;
10174;SDS011;18221;38.704;0.152;2023-10-08T00:57:31;8.27;;;7.40;;
10174;SDS011;18221;38.704;0.152;2023-10-08T01:00:04;7.90;;;7.10;;
10174;SDS011;18221;38.704;0.152;2023-10-08T01:02:41;8.40;;;7.23;;
10174;SDS011;18221;38.704;0.152;2023-10-08T01:05:14;8.33;;;7.00;;
10174;SDS011;18221;38.704;0.152;2023-10-08T01:07:50;7.73;;;6.83;;
10174;SDS011;18221;38.704;0.152;2023-10-08T01:10:21;8.17;;;7.03;;
10174;SDS011;18221;38.704;0.152;2023-10-08T01:12:50;11.73;;;7.17;;
10174;SDS011;18221;38.704;0.152;2023-10-08T01:15:32;9.67;;;6.87;;
10174;SDS011;18221;38.704;0.152;2023-10-08T01:18:02;7.47;;;6.77;;
10174;SDS011;18221;38.704;0.152;2023-10-08T01:20:39;7.47;;;6.70;;
10174;SDS011;18221;38.704;0.152;2023-10-08T01:23:18;9.63;;;7.03;;
10174;SDS011;18221;38.704;0.152;2023-10-08T01:25:48;8.10;;;6.70;;
10174;SDS011;18221;38.704;0.152;2023-10-08T01:28:18;6.93;;;6.23;;
10174;SDS011;18221;38.704;0.152;2023-10-08T01:30:51;9.63;;;6.50;;
10174;SDS011;18221;38.704;0.152;2023-10-08T01:33:20;7.93;;;6.23;;
10174;SDS011;18221;38.704;0.152;2023-10-08T01:35:53;6.93;;;6.20;;
10174;SDS011;18221;38.704;0.152;2023-10-08T01:38:28;7.33;;;6.53;;
10174;SDS011;18221;38.704;0.152;2023-10-08T01:40:58;7.87;;;6.50;;
10174;SDS011;18221;38.704;0.152;2023-10-08T01:43:44;7.50;;;6.67;;
10174;SDS011;18221;38.704;0.152;2023-10-08T01:46:12;8.53;;;6.77;;
10174;SDS011;18221;38.704;0.152;2023-10-08T01:48:41;7.27;;;6.57;;
10174;SDS011;18221;38.704;0.152;2023-10-08T01:51:10;7.33;;;6.60;;
10174;SDS011;18221;38.704;0.152;2023-10-08T01:53:51;7.13;;;6.53;;
10174;SDS011;18221;38.704;0.152;2023-10-08T01:56:23;9.90;;;6.77;;
10174;SDS011;18221;38.704;0.152;2023-10-08T01:58:51;8.20;;;6.97;;
10174;SDS011;18221;38.704;0.152;2023-10-08T02:01:19;7.17;;;6.47;;
10174;SDS011;18221;38.704;0.152;2023-10-08T02:03:47;10.60;;;6.93;;
10174;SDS011;18221;38.704;0.152;2023-10-08T02:06:15;8.93;;;7.53;;
10174;SDS011;18221;38.704;0.152;2023-10-08T02:08:43;8.53;;;6.90;;
10174;SDS011;18221;38.704;0.152;2023-10-08T02:11:14;7.50;;;6.80;;
10174;SDS011;18221;38.704;0.152;2023-10-08T02:13:42;8.20;;;6.63;;
10174;SDS011;18221;38.704;0.152;2023-10-08T02:16:14;11.03;;;7.73;;
10174;SDS011;18221;38.704;0.152;2023-10-08T02:18:47;8.20;;;7.27;;
10174;SDS011;18221;38.704;0.152;2023-10-08T02:21:16;10.03;;;7.57;;
10174;SDS011;18221;38.704;0.152;2023-10-08T02:23:44;9.93;;;7.33;;
10174;SDS011;18221;38.704;0.152;2023-10-08T02:26:14;9.47;;;7.63;;
10174;SDS011;18221;38.704;0.152;2023-10-08T02:28:44;8.60;;;7.60;;
10174;SDS011;18221;38.704;0.152;2023-10-08T02:31:12;8.83;;;7.60;;
10174;SDS011;18221;38.704;0.152;2023-10-08T02:33:40;8.63;;;7.83;;
10174;SDS011;18221;38.704;0.152;2023-10-08T02:36:09;9.83;;;7.53;;
10174;SDS011;18221;38.704;0.152;2023-10-08T02:38:39;10.20;;;7.77;;
10174;SDS011;18221;38.704;0.152;2023-10-08T02:41:07;8.60;;;7.70;;
10174;SDS011;18221;38.704;0.152;2023-10-08T02:43:42;8.90;;;7.80;;
10174;SDS011;18221;38.704;0.152;2023-10-08T02:46:10;10.73;;;7.53;;
10174;SDS011;18221;38.704;0.152;2023-10-08T02:48:40;10.33;;;7.50;;
10174;SDS011;18221;38.704;0.152;2023-10-08T02:51:08;10.53;;;7.87;;
10174;SDS011;18221;38.704;0.152;2023-10-08T02:53:40;8.97;;;7.80;;
10174;SDS011;18221;38.704;0.152;2023-10-08T02:56:09;8.57;;;7.67;;
10174;SDS011;18221;38.704;0.152;2023-10-08T02:58:39;9.60;;;8.17;;
10174;SDS011;18221;38.704;0.152;2023-10-08T03:01:09;8.43;;;7.30;;
10174;SDS011;18221;38.704;0.152;2023-10-08T03:03:39;8.10;;;7.13;;
10174;SDS011;18221;38.704;0.152;2023-10-08T03:06:08;8.57;;;7.67;;
10174;SDS011;18221;38.704;0.152;2023-10-08T03:08:40;9.50;;;7.57;;
10174;SDS011;18221;38.704;0.152;2023-10-08T03:11:08;8.43;;;7.30;;
10174;SDS011;18221;38.704;0.152;2023-10-08T03:13:47;8.67;;;7.77;;
10174;SDS011;18221;38.704;0.152;2023-10-08T03:16:17;8.30;;;7.33;;
10174;SDS011;18221;38.704;0.152;2023-10-08T03:18:52;8.33;;;7.13;;
10174;SDS011;18221;38.704;0.152;2023-10-08T03:21:22;8.23;;;7.33;;
10174;SDS011;18221;38.704;0.152;2023-10-08T03:24:14;9.73;;;7.73;;
10174;SDS011;18221;38.704;0.152;2023-10-08T03:26:55;10.50;;;7.80;;
10174;SDS011;18221;38.704;0.152;2023-10-08T03:29:33;8.60;;;7.60;;
10174;SDS011;18221;38.704;0.152;2023-10-08T03:32:06;8.10;;;7.30;;
10174;SDS011;18221;38.704;0.152;2023-10-08T03:34:38;8.00;;;7.00;;
10174;SDS011;18221;38.704;0.152;2023-10-08T03:37:08;8.20;;;7.30;;
10174;SDS011;18221;38.704;0.152;2023-10-08T03:39:42;10.30;;;7.33;;
10174;SDS011;18221;38.704;0.152;2023-10-08T03:42:26;9.70;;;7.77;;
10174;SDS011;18221;38.704;0.152;2023-10-08T03:45:01;8.60;;;7.23;;
10174;SDS011;18221;38.704;0.152;2023-10-08T03:47:37;8.97;;;7.37;;
10174;SDS011;18221;38.704;0.152;2023-10-08T03:50:11;9.43;;;7.37;;
10174;SDS011;18221;38.704;0.152;2023-10-08T03:52:42;7.90;;;7.17;;
10174;SDS011;18221;38.704;0.152;2023-10-08T03:55:12;8.50;;;7.70;;
10174;SDS011;18221;38.704;0.152;2023-10-08T03:57:47;9.53;;;7.67;;
10174;SDS011;18221;38.704;0.152;2023-10-08T04:00:24;8.93;;;8.00;;
10174;SDS011;18221;38.704;0.152;2023-10-08T04:03:06;8.37;;;7.47;;
10174;SDS011;18221;38.704;0.152;2023-10-08T04:05:36;7.73;;;6.93;;
10174;SDS011;18221;38.704;0.152;2023-10-08T04:08:24;8.40;;;7.50;;
10174;SDS011;18221;38.704;0.152;2023-10-08T04:11:08;8.77;;;7.73;;
10174;SDS011;18221;38.704;0.152;2023-10-08T04:13:53;8.53;;;7.63;;
10174;SDS011;18221;38.704;0.152;2023-10-08T04:16:26;9.20;;;7.70;;
10174;SDS011;18221;38.704;0.152;2023-10-08T04:18:55;10.63;;;7.70;;
10174;SDS011;18221;38.704;0.152;2023-10-08T04:21:28;8.53;;;7.63;;
10174;SDS011;18221;38.704;0.152;2023-10-08T04:23:59;9.27;;;8.07;;
10174;SDS011;18221;38.704;0.152;2023-10-08T04:26:33;10.33;;;8.10;;
10174;SDS011;18221;38.704;0.152;2023-10-08T04:29:04;9.13;;;8.10;;
10174;SDS011;18221;38.704;0.152;2023-10-08T04:31:34;9.47;;;8.53;;
10174;SDS011;18221;38.704;0.152;2023-10-08T04:34:09;8.90;;;8.00;;
10174;SDS011;18221;38.704;0.152;2023-10-08T04:36:41;13.63;;;8.60;;
10174;SDS011;18221;38.704;0.152;2023-10-08T04:39:10;8.57;;;7.77;;
10174;SDS011;18221;38.704;0.152;2023-10-08T04:41:47;8.03;;;7.23;;
10174;SDS011;18221;38.704;0.152;2023-10-08T04:44:19;7.83;;;7.23;;
10174;SDS011;18221;38.704;0.152;2023-10-08T04:46:48;8.40;;;7.60;;
10174;SDS011;18221;38.704;0.152;2023-10-08T04:49:18;7.93;;;7.20;;
10174;SDS011;18221;38.704;0.152;2023-10-08T04:51:54;9.93;;;8.03;;
10174;SDS011;18221;38.704;0.152;2023-10-08T04:54:25;9.23;;;8.00;;
10174;SDS011;18221;38.704;0.152;2023-10-08T04:56:56;8.97;;;8.07;;
10174;SDS011;18221;38.704;0.152;2023-10-08T04:59:26;8.70;;;7.63;;
10174;SDS011;18221;38.704;0.152;2023-10-08T05:02:01;9.57;;;8.07;;
10174;SDS011;18221;38.704;0.152;2023-10-08T05:04:45;9.00;;;8.10;;
10174;SDS011;18221;38.704;0.152;2023-10-08T05:07:33;9.10;;;8.17;;
10174;SDS011;18221;38.704;0.152;2023-10-08T05:10:14;11.57;;;7.87;;
10174;SDS011;18221;38.704;0.152;2023-10-08T05:12:56;9.13;;;8.23;;
10174;SDS011;18221;38.704;0.152;2023-10-08T05:15:40;9.97;;;8.60;;
10174;SDS011;18221;38.704;0.152;2023-10-08T05:18:28;10.13;;;9.13;;
10174;SDS011;18221;38.704;0.152;2023-10-08T05:21:24;10.10;;;8.63;;
10174;SDS011;18221;38.704;0.152;2023-10-08T05:24:06;10.13;;;9.10;;
10174;SDS011;18221;38.704;0.152;2023-10-08T05:26:43;10.60;;;9.50;;
10174;SDS011;18221;38.704;0.152;2023-10-08T05:29:14;12.17;;;9.17;;
10174;SDS011;18221;38.704;0.152;2023-10-08T05:31:59;11.63;;;9.17;;
10174;SDS011;18221;38.704;0.152;2023-10-08T05:35:02;11.10;;;9.37;;
10174;SDS011;18221;38.704;0.152;2023-10-08T05:37:45;11.13;;;9.20;;
10174;SDS011;18221;38.704;0.152;2023-10-08T05:40:17;10.90;;;9.70;;
10174;SDS011;18221;38.704;0.152;2023-10-08T05:43:03;12.77;;;9.27;;
10174;SDS011;18221;38.704;0.152;2023-10-08T05:45:48;13.13;;;9.93;;
10174;SDS011;18221;38.704;0.152;2023-10-08T05:48:38;10.03;;;9.03;;
10174;SDS011;18221;38.704;0.152;2023-10-08T05:51:12;11.67;;;9.83;;
10174;SDS011;18221;38.704;0.152;2023-10-08T05:53:49;10.43;;;9.30;;
10174;SDS011;18221;38.704;0.152;2023-10-08T05:56:21;12.70;;;10.47;;
10174;SDS011;18221;38.704;0.152;2023-10-08T05:58:54;11.47;;;10.33;;
10174;SDS011;18221;38.704;0.152;2023-10-08T06:01:40;11.80;;;9.67;;
10174;SDS011;18221;38.704;0.152;2023-10-08T06:04:11;11.23;;;9.73;;
10174;SDS011;18221;38.704;0.152;2023-10-08T06:07:09;10.30;;;9.27;;
10174;SDS011;18221;38.704;0.152;2023-10-08T06:09:42;10.77;;;9.67;;
10174;SDS011;18221;38.704;0.152;2023-10-08T06:12:26;10.87;;;9.50;;
10174;SDS011;18221;38.704;0.152;2023-10-08T06:14:58;13.10;;;9.40;;
10174;SDS011;18221;38.704;0.152;2023-10-08T06:17:34;10.70;;;9.67;;
10174;SDS011;18221;38.704;0.152;2023-10-08T06:20:20;12.13;;;9.87;;
10174;SDS011;18221;38.704;0.152;2023-10-08T06:22:52;11.20;;;9.80;;
10174;SDS011;18221;38.704;0.152;2023-10-08T06:25:26;12.40;;;9.83;;
10174;SDS011;18221;38.704;0.152;2023-10-08T06:27:55;11.03;;;9.93;;
10174;SDS011;18221;38.704;0.152;2023-10-08T06:30:24;12.03;;;9.60;;
10174;SDS011;18221;38.704;0.152;2023-10-08T06:32:59;11.43;;;9.97;;
10174;SDS011;18221;38.704;0.152;2023-10-08T06:35:29;10.63;;;9.07;;
10174;SDS011;18221;38.704;0.152;2023-10-08T06:37:59;10.53;;;9.50;;
10174;SDS011;18221;38.704;0.152;2023-10-08T06:40:33;10.23;;;9.23;;
10174;SDS011;18221;38.704;0.152;2023-10-08T06:43:07;10.27;;;9.17;;
10174;SDS011;18221;38.704;0.152;2023-10-08T06:45:42;9.67;;;8.67;;
10174;SDS011;18221;38.704;0.152;2023-10-08T06:48:11;11.00;;;8.80;;
10174;SDS011;18221;38.704;0.152;2023-10-08T06:50:45;10.30;;;9.20;;
10174;SDS011;18221;38.704;0.152;2023-10-08T06:53:16;10.07;;;8.57;;
10174;SDS011;18221;38.704;0.152;2023-10-08T06:55:44;9.23;;;8.43;;
10174;SDS011;18221;38.704;0.152;2023-10-08T06:58:19;12.37;;;9.00;;
10174;SDS011;18221;38.704;0.152;2023-10-08T07:00:48;11.77;;;10.00;;
10174;SDS011;18221;38.704;0.152;2023-10-08T07:03:17;10.47;;;9.47;;
10174;SDS011;18221;38.704;0.152;2023-10-08T07:05:46;11.30;;;9.67;;
10174;SDS011;18221;38.704;0.152;2023-10-08T07:08:24;10.60;;;9.43;;
10174;SDS011;18221;38.704;0.152;2023-10-08T07:10:56;10.57;;;9.47;;
10174;SDS011;18221;38.704;0.152;2023-10-08T07:13:30;12.30;;;9.47;;
10174;SDS011;18221;38.704;0.152;2023-10-08T07:15:58;11.43;;;9.63;;
10174;SDS011;18221;38.704;0.152;2023-10-08T07:18:29;16.50;;;9.80;;
10174;SDS011;18221;38.704;0.152;2023-10-08T07:20:59;10.73;;;9.07;;
10174;SDS011;18221;38.704;0.152;2023-10-08T07:23:38;11.03;;;9.40;;
10174;SDS011;18221;38.704;0.152;2023-10-08T07:26:21;9.57;;;7.57;;
10174;SDS011;18221;38.704;0.152;2023-10-08T07:28:50;10.87;;;8.07;;
10174;SDS011;18221;38.704;0.152;2023-10-08T07:31:20;9.83;;;8.83;;
10174;SDS011;18221;38.704;0.152;2023-10-08T07:33:54;9.30;;;7.80;;
10174;SDS011;18221;38.704;0.152;2023-10-08T07:36:23;9.93;;;8.93;;
10174;SDS011;18221;38.704;0.152;2023-10-08T07:38:54;9.40;;;7.80;;
10174;SDS011;18221;38.704;0.152;2023-10-08T07:41:22;9.17;;;8.00;;
10174;SDS011;18221;38.704;0.152;2023-10-08T07:43:50;9.87;;;7.73;;
10174;SDS011;18221;38.704;0.152;2023-10-08T07:46:21;8.03;;;7.23;;
10174;SDS011;18221;38.704;0.152;2023-10-08T07:48:51;9.43;;;7.47;;
10174;SDS011;18221;38.704;0.152;2023-10-08T07:51:19;8.47;;;7.20;;
10174;SDS011;18221;38.704;0.152;2023-10-08T07:53:48;9.33;;;7.30;;
10174;SDS011;18221;38.704;0.152;2023-10-08T07:56:21;9.43;;;6.83;;
10174;SDS011;18221;38.704;0.152;2023-10-08T07:58:49;8.10;;;7.00;;
10174;SDS011;18221;38.704;0.152;2023-10-08T08:01:17;8.73;;;6.80;;
10174;SDS011;18221;38.704;0.152;2023-10-08T08:03:46;7.10;;;6.40;;
10174;SDS011;18221;38.704;0.152;2023-10-08T08:06:15;7.53;;;6.80;;
10174;SDS011;18221;38.704;0.152;2023-10-08T08:08:44;7.67;;;6.10;;
10174;SDS011;18221;38.704;0.152;2023-10-08T08:11:12;7.27;;;6.37;;
10174;SDS011;18221;38.704;0.152;2023-10-08T08:13:44;7.73;;;6.17;;
10174;SDS011;18221;38.704;0.152;2023-10-08T08:16:13;10.93;;;6.33;;
10174;SDS011;18221;38.704;0.152;2023-10-08T08:18:46;8.97;;;6.60;;
10174;SDS011;18221;38.704;0.152;2023-10-08T08:21:18;8.83;;;5.97;;
10174;SDS011;18221;38.704;0.152;2023-10-08T08:23:48;12.53;;;6.57;;
10174;SDS011;18221;38.704;0.152;2023-10-08T08:26:18;7.33;;;6.10;;
10174;SDS011;18221;38.704;0.152;2023-10-08T08:28:56;7.78;;;6.05;;
10174;SDS011;18221;38.704;0.152;2023-10-08T08:31:27;7.47;;;5.78;;
10174;SDS011;18221;38.704;0.152;2023-10-08T08:33:57;8.77;;;5.93;;
10174;SDS011;18221;38.704;0.152;2023-10-08T08:36:28;9.00;;;6.10;;
10174;SDS011;18221;38.704;0.152;2023-10-08T08:38:58;8.93;;;5.80;;
10174;SDS011;18221;38.704;0.152;2023-10-08T08:41:26;8.63;;;6.30;;
10174;SDS011;18221;38.704;0.152;2023-10-08T08:43:56;8.65;;;6.38;;
10174;SDS011;18221;38.704;0.152;2023-10-08T08:46:28;6.80;;;5.60;;
10174;SDS011;18221;38.704;0.152;2023-10-08T08:49:00;10.10;;;6.32;;
10174;SDS011;18221;38.704;0.152;2023-10-08T08:51:33;6.53;;;5.88;;
10174;SDS011;18221;38.704;0.152;2023-10-08T08:54:04;10.13;;;5.95;;
10174;SDS011;18221;38.704;0.152;2023-10-08T08:56:33;8.00;;;5.88;;
10174;SDS011;18221;38.704;0.152;2023-10-08T08:59:05;7.68;;;5.80;;
10174;SDS011;18221;38.704;0.152;2023-10-08T09:01:37;7.88;;;5.60;;
10174;SDS011;18221;38.704;0.152;2023-10-08T09:04:06;7.28;;;5.80;;
10174;SDS011;18221;38.704;0.152;2023-10-08T09:06:35;7.88;;;5.78;;
10174;SDS011;18221;38.704;0.152;2023-10-08T09:09:04;6.95;;;5.38;;
10174;SDS011;18221;38.704;0.152;2023-10-08T09:11:47;8.27;;;5.82;;
10174;SDS011;18221;38.704;0.152;2023-10-08T09:14:19;6.88;;;5.68;;
10174;SDS011;18221;38.704;0.152;2023-10-08T09:16:48;7.85;;;5.28;;
10174;SDS011;18221;38.704;0.152;2023-10-08T09:19:16;6.70;;;5.38;;
10174;SDS011;18221;38.704;0.152;2023-10-08T09:21:49;7.80;;;5.53;;
10174;SDS011;18221;38.704;0.152;2023-10-08T09:24:29;7.85;;;6.07;;
10174;SDS011;18221;38.704;0.152;2023-10-08T09:26:59;10.23;;;5.85;;
10174;SDS011;18221;38.704;0.152;2023-10-08T09:29:29;5.68;;;4.90;;
10174;SDS011;18221;38.704;0.152;2023-10-08T09:31:57;7.68;;;5.80;;
10174;SDS011;18221;38.704;0.152;2023-10-08T09:34:27;7.13;;;5.47;;
10174;SDS011;18221;38.704;0.152;2023-10-08T09:36:56;5.93;;;5.20;;
10174;SDS011;18221;38.704;0.152;2023-10-08T09:39:27;7.00;;;5.43;;
10174;SDS011;18221;38.704;0.152;2023-10-08T09:41:59;6.28;;;5.63;;
10174;SDS011;18221;38.704;0.152;2023-10-08T09:44:30;9.90;;;5.07;;
10174;SDS011;18221;38.704;0.152;2023-10-08T09:47:03;6.03;;;5.30;;
10174;SDS011;18221;38.704;0.152;2023-10-08T09:49:33;8.05;;;5.57;;
10174;SDS011;18221;38.704;0.152;2023-10-08T09:52:10;6.30;;;5.40;;
10174;SDS011;18221;38.704;0.152;2023-10-08T09:54:43;7.18;;;5.10;;
10174;SDS011;18221;38.704;0.152;2023-10-08T09:57:19;6.65;;;5.25;;
10174;SDS011;18221;38.704;0.152;2023-10-08T09:59:53;9.13;;;5.28;;
10174;SDS011;18221;38.704;0.152;2023-10-08T10:02:23;7.78;;;5.13;;
10174;SDS011;18221;38.704;0.152;2023-10-08T10:04:54;7.60;;;5.28;;
10174;SDS011;18221;38.704;0.152;2023-10-08T10:07:24;6.65;;;5.32;;
10174;SDS011;18221;38.704;0.152;2023-10-08T10:09:53;5.43;;;4.93;;
10174;SDS011;18221;38.704;0.152;2023-10-08T10:12:24;8.73;;;5.18;;
10174;SDS011;18221;38.704;0.152;2023-10-08T10:14:55;7.43;;;5.00;;
10174;SDS011;18221;38.704;0.152;2023-10-08T10:17:26;6.43;;;5.15;;
10174;SDS011;18221;38.704;0.152;2023-10-08T10:19:55;4.97;;;4.47;;
10174;SDS011;18221;38.704;0.152;2023-10-08T10:22:29;8.48;;;5.15;;
10174;SDS011;18221;38.704;0.152;2023-10-08T10:24:59;6.43;;;4.18;;
10174;SDS011;18221;38.704;0.152;2023-10-08T10:27:40;6.05;;;4.82;;
10174;SDS011;18221;38.704;0.152;2023-10-08T10:30:11;8.48;;;4.55;;
10174;SDS011;18221;38.704;0.152;2023-10-08T10:32:44;5.47;;;4.25;;
10174;SDS011;18221;38.704;0.152;2023-10-08T10:35:14;8.30;;;4.43;;
10174;SDS011;18221;38.704;0.152;2023-10-08T10:37:45;5.05;;;4.43;;
10174;SDS011;18221;38.704;0.152;2023-10-08T10:40:19;5.75;;;4.40;;
10174;SDS011;18221;38.704;0.152;2023-10-08T10:43:04;9.43;;;5.10;;
10174;SDS011;18221;38.704;0.152;2023-10-08T10:45:36;7.82;;;4.55;;
10174;SDS011;18221;38.704;0.152;2023-10-08T10:48:07;7.55;;;5.10;;
10174;SDS011;18221;38.704;0.152;2023-10-08T10:50:46;7.28;;;4.57;;
10174;SDS011;18221;38.704;0.152;2023-10-08T10:53:33;6.88;;;5.00;;
10174;SDS011;18221;38.704;0.152;2023-10-08T10:56:11;6.03;;;4.78;;
10174;SDS011;18221;38.704;0.152;2023-10-08T10:58:45;8.60;;;5.13;;
10174;SDS011;18221;38.704;0.152;2023-10-08T11:01:20;7.10;;;5.00;;
10174;SDS011;18221;38.704;0.152;2023-10-08T11:03:55;6.10;;;4.85;;
10174;SDS011;18221;38.704;0.152;2023-10-08T11:06:24;8.10;;;5.03;;
10174;SDS011;18221;38.704;0.152;2023-10-08T11:08:53;7.03;;;4.85;;
10174;SDS011;18221;38.704;0.152;2023-10-08T11:11:25;7.43;;;5.13;;
10174;SDS011;18221;38.704;0.152;2023-10-08T11:13:56;9.55;;;5.35;;
10174;SDS011;18221;38.704;0.152;2023-10-08T11:16:27;6.43;;;5.47;;
10174;SDS011;18221;38.704;0.152;2023-10-08T11:18:56;7.97;;;5.05;;
10174;SDS011;18221;38.704;0.152;2023-10-08T11:21:31;6.45;;;5.47;;
10174;SDS011;18221;38.704;0.152;2023-10-08T11:24:01;12.20;;;4.90;;
10174;SDS011;18221;38.704;0.152;2023-10-08T11:26:36;5.75;;;5.25;;
10174;SDS011;18221;38.704;0.152;2023-10-08T11:29:26;7.20;;;4.70;;
10174;SDS011;18221;38.704;0.152;2023-10-08T11:31:56;6.07;;;4.90;;
10174;SDS011;18221;38.704;0.152;2023-10-08T11:34:31;9.15;;;5.50;;
10174;SDS011;18221;38.704;0.152;2023-10-08T11:37:04;7.35;;;5.22;;
10174;SDS011;18221;38.704;0.152;2023-10-08T11:39:45;7.85;;;4.82;;
10174;SDS011;18221;38.704;0.152;2023-10-08T11:42:14;7.22;;;5.07;;
10174;SDS011;18221;38.704;0.152;2023-10-08T11:44:59;5.80;;;4.85;;
10174;SDS011;18221;38.704;0.152;2023-10-08T11:47:44;7.35;;;4.68;;
10174;SDS011;18221;38.704;0.152;2023-10-08T11:50:14;10.18;;;4.63;;
10174;SDS011;18221;38.704;0.152;2023-10-08T11:52:45;8.55;;;4.90;;
10174;SDS011;18221;38.704;0.152;2023-10-08T11:55:16;7.70;;;4.88;;
10174;SDS011;18221;38.704;0.152;2023-10-08T11:57:45;7.55;;;4.70;;
10174;SDS011;18221;38.704;0.152;2023-10-08T12:00:14;6.45;;;4.43;;
10174;SDS011;18221;38.704;0.152;2023-10-08T12:02:49;8.02;;;4.70;;
10174;SDS011;18221;38.704;0.152;2023-10-08T12:05:19;6.40;;;4.28;;
10174;SDS011;18221;38.704;0.152;2023-10-08T12:07:50;6.38;;;3.83;;
10174;SDS011;18221;38.704;0.152;2023-10-08T12:10:23;6.38;;;4.68;;
10174;SDS011;18221;38.704;0.152;2023-10-08T12:12:51;5.43;;;4.40;;
10174;SDS011;18221;38.704;0.152;2023-10-08T12:15:20;7.78;;;4.40;;
10174;SDS011;18221;38.704;0.152;2023-10-08T12:18:01;6.82;;;4.18;;
10174;SDS011;18221;38.704;0.152;2023-10-08T12:20:38;6.45;;;4.20;;
10174;SDS011;18221;38.704;0.152;2023-10-08T12:23:09;6.53;;;4.32;;
10174;SDS011;18221;38.704;0.152;2023-10-08T12:25:45;7.97;;;4.50;;
10174;SDS011;18221;38.704;0.152;2023-10-08T12:28:16;7.10;;;4.43;;
10174;SDS011;18221;38.704;0.152;2023-10-08T12:30:45;8.48;;;5.20;;
10174;SDS011;18221;38.704;0.152;2023-10-08T12:33:16;6.85;;;4.40;;
10174;SDS011;18221;38.704;0.152;2023-10-08T12:35:45;5.70;;;4.72;;
10174;SDS011;18221;38.704;0.152;2023-10-08T12:38:14;9.48;;;5.20;;
10174;SDS011;18221;38.704;0.152;2023-10-08T12:40:46;6.85;;;5.00;;
10174;SDS011;18221;38.704;0.152;2023-10-08T12:43:19;10.45;;;4.90;;
10174;SDS011;18221;38.704;0.152;2023-10-08T12:45:48;8.02;;;4.55;;
10174;SDS011;18221;38.704;0.152;2023-10-08T12:48:23;5.78;;;4.72;;
10174;SDS011;18221;38.704;0.152;2023-10-08T12:50:53;6.18;;;4.72;;
10174;SDS011;18221;38.704;0.152;2023-10-08T12:53:23;5.43;;;4.45;;
10174;SDS011;18221;38.704;0.152;2023-10-08T12:56:01;6.75;;;4.30;;
10174;SDS011;18221;38.704;0.152;2023-10-08T12:58:32;4.72;;;3.75;;
10174;SDS011;18221;38.704;0.152;2023-10-08T13:01:06;6.00;;;4.38;;
10174;SDS011;18221;38.704;0.152;2023-10-08T13:03:37;6.40;;;4.30;;
10174;SDS011;18221;38.704;0.152;2023-10-08T13:06:08;7.18;;;4.72;;
10174;SDS011;18221;38.704;0.152;2023-10-08T13:08:40;7.00;;;4.47;;
10174;SDS011;18221;38.704;0.152;2023-10-08T13:11:08;6.68;;;4.40;;
10174;SDS011;18221;38.704;0.152;2023-10-08T13:13:36;6.68;;;4.30;;
10174;SDS011;18221;38.704;0.152;2023-10-08T13:16:04;4.88;;;4.30;;
10174;SDS011;18221;38.704;0.152;2023-10-08T13:18:37;6.35;;;4.97;;
10174;SDS011;18221;38.704;0.152;2023-10-08T13:21:08;5.50;;;4.50;;
10174;SDS011;18221;38.704;0.152;2023-10-08T13:23:36;7.85;;;4.68;;
10174;SDS011;18221;38.704;0.152;2023-10-08T13:26:04;7.78;;;4.88;;
10174;SDS011;18221;38.704;0.152;2023-10-08T13:28:33;6.50;;;5.43;;
10174;SDS011;18221;38.704;0.152;2023-10-08T13:31:05;8.02;;;4.90;;
10174;SDS011;18221;38.704;0.152;2023-10-08T13:33:38;5.00;;;4.50;;
10174;SDS011;18221;38.704;0.152;2023-10-08T13:36:08;6.40;;;4.85;;
10174;SDS011;18221;38.704;0.152;2023-10-08T13:38:39;7.68;;;4.47;;
10174;SDS011;18221;38.704;0.152;2023-10-08T13:41:08;6.15;;;4.80;;
10174;SDS011;18221;38.704;0.152;2023-10-08T13:43:41;6.03;;;4.82;;
10174;SDS011;18221;38.704;0.152;2023-10-08T13:46:12;6.07;;;4.47;;
10174;SDS011;18221;38.704;0.152;2023-10-08T13:48:44;6.95;;;4.70;;
10174;SDS011;18221;38.704;0.152;2023-10-08T13:51:14;5.80;;;4.82;;
10174;SDS011;18221;38.704;0.152;2023-10-08T13:53:50;5.20;;;4.60;;
10174;SDS011;18221;38.704;0.152;2023-10-08T13:56:24;5.93;;;5.03;;
10174;SDS011;18221;38.704;0.152;2023-10-08T13:59:03;7.28;;;4.93;;
10174;SDS011;18221;38.704;0.152;2023-10-08T14:01:37;9.35;;;5.43;;
10174;SDS011;18221;38.704;0.152;2023-10-08T14:04:10;7.78;;;4.72;;
10174;SDS011;18221;38.704;0.152;2023-10-08T14:06:42;7.32;;;5.38;;
10174;SDS011;18221;38.704;0.152;2023-10-08T14:09:13;7.13;;;5.45;;
10174;SDS011;18221;38.704;0.152;2023-10-08T14:11:46;7.63;;;5.45;;
10174;SDS011;18221;38.704;0.152;2023-10-08T14:14:17;6.65;;;4.70;;
10174;SDS011;18221;38.704;0.152;2023-10-08T14:16:49;9.00;;;4.70;;
10174;SDS011;18221;38.704;0.152;2023-10-08T14:19:20;5.28;;;4.75;;
10174;SDS011;18221;38.704;0.152;2023-10-08T14:21:54;5.35;;;4.72;;
10174;SDS011;18221;38.704;0.152;2023-10-08T14:24:28;5.43;;;4.75;;
10174;SDS011;18221;38.704;0.152;2023-10-08T14:27:00;6.90;;;4.45;;
10174;SDS011;18221;38.704;0.152;2023-10-08T14:29:35;6.90;;;4.93;;
10174;SDS011;18221;38.704;0.152;2023-10-08T14:32:09;6.40;;;4.35;;
10174;SDS011;18221;38.704;0.152;2023-10-08T14:34:39;10.45;;;4.72;;
10174;SDS011;18221;38.704;0.152;2023-10-08T14:37:24;7.30;;;4.10;;
10174;SDS011;18221;38.704;0.152;2023-10-08T14:40:09;5.13;;;4.15;;
10174;SDS011;18221;38.704;0.152;2023-10-08T14:42:54;5.82;;;4.55;;
10174;SDS011;18221;38.704;0.152;2023-10-08T14:45:25;5.47;;;4.30;;
10174;SDS011;18221;38.704;0.152;2023-10-08T14:47:56;7.22;;;4.40;;
10174;SDS011;18221;38.704;0.152;2023-10-08T14:50:26;5.03;;;4.10;;
10174;SDS011;18221;38.704;0.152;2023-10-08T14:52:58;5.55;;;4.20;;
10174;SDS011;18221;38.704;0.152;2023-10-08T14:55:29;6.18;;;4.72;;
10174;SDS011;18221;38.704;0.152;2023-10-08T14:58:00;4.93;;;4.03;;
10174;SDS011;18221;38.704;0.152;2023-10-08T15:00:33;6.18;;;4.30;;
10174;SDS011;18221;38.704;0.152;2023-10-08T15:03:03;7.68;;;4.35;;
10174;SDS011;18221;38.704;0.152;2023-10-08T15:05:33;5.40;;;4.35;;
10174;SDS011;18221;38.704;0.152;2023-10-08T15:08:02;5.50;;;4.60;;
10174;SDS011;18221;38.704;0.152;2023-10-08T15:10:35;8.13;;;4.43;;
10174;SDS011;18221;38.704;0.152;2023-10-08T15:13:03;6.18;;;4.88;;
10174;SDS011;18221;38.704;0.152;2023-10-08T15:15:31;7.78;;;4.75;;
10174;SDS011;18221;38.704;0.152;2023-10-08T15:18:00;6.65;;;5.28;;
10174;SDS011;18221;38.704;0.152;2023-10-08T15:20:28;7.75;;;4.93;;
10174;SDS011;18221;38.704;0.152;2023-10-08T15:22:59;8.95;;;5.05;;
10174;SDS011;18221;38.704;0.152;2023-10-08T15:25:28;6.07;;;5.10;;
10174;SDS011;18221;38.704;0.152;2023-10-08T15:27:57;6.13;;;5.53;;
10174;SDS011;18221;38.704;0.152;2023-10-08T15:30:26;9.20;;;6.00;;
10174;SDS011;18221;38.704;0.152;2023-10-08T15:32:54;8.65;;;5.97;;